sensor_id;sensor_type;location;lat;lon;timestamp;pressure;altitude;pressure_sealevel;temperature;humidity
56632;BME280;42503;39.928;-75.152;2023-02-18T00:04:38;100975.78;;;22.82;40.47
56632;BME280;42503;39.928;-75.152;2023-02-18T00:14:39;100979.13;;;22.84;40.20
56632;BME280;42503;39.928;-75.152;2023-02-18T00:24:41;101002.00;;;22.87;40.14
56632;BME280;42503;39.928;-75.152;2023-02-18T00:34:42;101000.91;;;22.82;40.03
56632;BME280;42503;39.928;-75.152;2023-02-18T00:44:46;101040.53;;;22.79;39.46
56632;BME280;42503;39.928;-75.152;2023-02-18T00:54:48;101078.56;;;22.70;39.45
56632;BME280;42503;39.928;-75.152;2023-02-18T01:04:49;101120.66;;;22.74;39.26
56632;BME280;42503;39.928;-75.152;2023-02-18T01:14:50;101169.47;;;22.71;39.21
56632;BME280;42503;39.928;-75.152;2023-02-18T01:24:52;101206.34;;;22.68;38.71
56632;BME280;42503;39.928;-75.152;2023-02-18T01:34:53;101240.38;;;22.65;38.49
56632;BME280;42503;39.928;-75.152;2023-02-18T01:55:42;101319.59;;;22.54;38.20
56632;BME280;42503;39.928;-75.152;2023-02-18T02:05:44;101334.13;;;22.51;38.51
56632;BME280;42503;39.928;-75.152;2023-02-18T02:15:55;101375.13;;;22.61;38.35
56632;BME280;42503;39.928;-75.152;2023-02-18T02:36:43;101456.28;;;22.69;37.85
56632;BME280;42503;39.928;-75.152;2023-02-18T02:46:51;101461.88;;;22.69;37.40
56632;BME280;42503;39.928;-75.152;2023-02-18T03:07:36;101515.97;;;22.78;37.14
56632;BME280;42503;39.928;-75.152;2023-02-18T03:17:47;101531.31;;;22.81;37.02
56632;BME280;42503;39.928;-75.152;2023-02-18T03:27:55;101560.91;;;22.82;36.86
56632;BME280;42503;39.928;-75.152;2023-02-18T03:38:11;101570.13;;;22.77;36.91
56632;BME280;42503;39.928;-75.152;2023-02-18T03:48:14;101600.22;;;22.80;36.40
56632;BME280;42503;39.928;-75.152;2023-02-18T03:58:15;101614.75;;;22.77;36.66
56632;BME280;42503;39.928;-75.152;2023-02-18T04:08:17;101635.38;;;22.76;36.45
56632;BME280;42503;39.928;-75.152;2023-02-18T04:18:21;101683.09;;;22.75;36.26
56632;BME280;42503;39.928;-75.152;2023-02-18T04:28:26;101693.97;;;22.71;36.32
56632;BME280;42503;39.928;-75.152;2023-02-18T04:38:30;101709.56;;;22.67;36.09
56632;BME280;42503;39.928;-75.152;2023-02-18T04:48:31;101728.03;;;22.68;35.90
56632;BME280;42503;39.928;-75.152;2023-02-18T04:58:32;101749.22;;;22.64;35.94
56632;BME280;42503;39.928;-75.152;2023-02-18T05:08:34;101769.25;;;22.56;36.15
56632;BME280;42503;39.928;-75.152;2023-02-18T05:18:35;101815.56;;;22.57;36.29
56632;BME280;42503;39.928;-75.152;2023-02-18T05:28:36;101824.75;;;22.57;36.08
56632;BME280;42503;39.928;-75.152;2023-02-18T05:38:41;101852.94;;;22.56;35.95
56632;BME280;42503;39.928;-75.152;2023-02-18T05:48:42;101868.53;;;22.52;36.16
56632;BME280;42503;39.928;-75.152;2023-02-18T05:58:44;101878.00;;;22.51;36.16
56632;BME280;42503;39.928;-75.152;2023-02-18T06:08:45;101910.66;;;22.50;36.02
56632;BME280;42503;39.928;-75.152;2023-02-18T06:18:46;101913.63;;;22.39;36.37
56632;BME280;42503;39.928;-75.152;2023-02-18T06:28:48;101943.81;;;22.47;36.17
56632;BME280;42503;39.928;-75.152;2023-02-18T06:38:49;101980.94;;;22.52;35.90
56632;BME280;42503;39.928;-75.152;2023-02-18T06:48:53;101991.88;;;22.59;35.64
56632;BME280;42503;39.928;-75.152;2023-02-18T06:58:55;102013.66;;;22.62;35.85
56632;BME280;42503;39.928;-75.152;2023-02-18T07:08:56;102015.31;;;22.63;35.58
56632;BME280;42503;39.928;-75.152;2023-02-18T07:18:57;102031.03;;;22.69;35.00
56632;BME280;42503;39.928;-75.152;2023-02-18T07:28:59;102049.44;;;22.70;35.06
56632;BME280;42503;39.928;-75.152;2023-02-18T07:39:00;102078.78;;;22.73;34.50
56632;BME280;42503;39.928;-75.152;2023-02-18T07:49:01;102093.56;;;22.73;34.57
56632;BME280;42503;39.928;-75.152;2023-02-18T07:59:03;102099.13;;;22.73;34.21
56632;BME280;42503;39.928;-75.152;2023-02-18T08:09:05;102118.06;;;22.71;33.81
56632;BME280;42503;39.928;-75.152;2023-02-18T08:19:09;102147.38;;;22.69;34.11
56632;BME280;42503;39.928;-75.152;2023-02-18T08:29:10;102186.94;;;22.66;33.90
56632;BME280;42503;39.928;-75.152;2023-02-18T08:39:14;102191.38;;;22.62;33.81
56632;BME280;42503;39.928;-75.152;2023-02-18T08:49:16;102215.06;;;22.59;33.86
56632;BME280;42503;39.928;-75.152;2023-02-18T08:59:17;102243.47;;;22.56;33.49
56632;BME280;42503;39.928;-75.152;2023-02-18T09:09:19;102267.97;;;22.54;33.50
56632;BME280;42503;39.928;-75.152;2023-02-18T09:19:23;102300.31;;;22.50;33.61
56632;BME280;42503;39.928;-75.152;2023-02-18T09:29:24;102314.16;;;22.45;33.56
56632;BME280;42503;39.928;-75.152;2023-02-18T09:39:28;102324.00;;;22.30;33.48
56632;BME280;42503;39.928;-75.152;2023-02-18T09:49:36;102380.47;;;22.38;33.54
56632;BME280;42503;39.928;-75.152;2023-02-18T09:59:45;102379.91;;;22.19;33.65
56632;BME280;42503;39.928;-75.152;2023-02-18T10:09:49;102395.25;;;22.21;33.23
56632;BME280;42503;39.928;-75.152;2023-02-18T10:20:02;102441.91;;;22.43;33.19
56632;BME280;42503;39.928;-75.152;2023-02-18T10:30:31;102466.66;;;22.39;33.55
56632;BME280;42503;39.928;-75.152;2023-02-18T10:50:39;102513.81;;;22.57;32.24
56632;BME280;42503;39.928;-75.152;2023-02-18T11:00:41;102522.97;;;22.53;32.42
56632;BME280;42503;39.928;-75.152;2023-02-18T11:10:44;102542.00;;;22.56;32.20
56632;BME280;42503;39.928;-75.152;2023-02-18T11:20:57;102552.53;;;22.54;32.32
56632;BME280;42503;39.928;-75.152;2023-02-18T11:31:00;102558.72;;;22.56;32.13
56632;BME280;42503;39.928;-75.152;2023-02-18T11:41:07;102581.94;;;22.45;32.06
56632;BME280;42503;39.928;-75.152;2023-02-18T12:01:35;102586.69;;;22.27;31.96
56632;BME280;42503;39.928;-75.152;2023-02-18T12:11:50;102631.84;;;22.41;32.07
56632;BME280;42503;39.928;-75.152;2023-02-18T12:43:21;102703.06;;;22.32;31.62
56632;BME280;42503;39.928;-75.152;2023-02-18T13:13:54;102769.63;;;22.28;32.86
56632;BME280;42503;39.928;-75.152;2023-02-18T13:24:06;102778.00;;;22.28;33.13
56632;BME280;42503;39.928;-75.152;2023-02-18T13:34:34;102786.38;;;22.28;33.30
56632;BME280;42503;39.928;-75.152;2023-02-18T13:45:06;102807.09;;;22.32;33.58
56632;BME280;42503;39.928;-75.152;2023-02-18T13:55:28;102825.53;;;22.45;32.90
56632;BME280;42503;39.928;-75.152;2023-02-18T14:05:39;102837.53;;;22.46;33.11
56632;BME280;42503;39.928;-75.152;2023-02-18T14:15:52;102858.75;;;22.47;33.20
56632;BME280;42503;39.928;-75.152;2023-02-18T14:26:00;102848.78;;;22.51;32.76
56632;BME280;42503;39.928;-75.152;2023-02-18T14:57:03;102889.53;;;22.52;32.76
56632;BME280;42503;39.928;-75.152;2023-02-18T15:07:08;102878.84;;;22.49;32.49
56632;BME280;42503;39.928;-75.152;2023-02-18T15:17:21;102870.00;;;22.52;32.72
56632;BME280;42503;39.928;-75.152;2023-02-18T15:27:35;102853.75;;;22.49;32.57
56632;BME280;42503;39.928;-75.152;2023-02-18T15:37:43;102852.69;;;22.50;32.68
56632;BME280;42503;39.928;-75.152;2023-02-18T15:47:52;102859.94;;;22.51;33.27
56632;BME280;42503;39.928;-75.152;2023-02-18T15:58:02;102862.75;;;22.51;33.26
56632;BME280;42503;39.928;-75.152;2023-02-18T16:08:22;102841.91;;;22.42;33.10
56632;BME280;42503;39.928;-75.152;2023-02-18T16:18:36;102849.25;;;22.48;32.92
56632;BME280;42503;39.928;-75.152;2023-02-18T16:28:42;102813.16;;;22.29;33.26
56632;BME280;42503;39.928;-75.152;2023-02-18T16:38:47;102838.59;;;22.45;32.57
56632;BME280;42503;39.928;-75.152;2023-02-18T16:48:55;102812.41;;;22.46;32.69
56632;BME280;42503;39.928;-75.152;2023-02-18T16:58:56;102802.47;;;22.50;32.42
56632;BME280;42503;39.928;-75.152;2023-02-18T17:08:58;102773.47;;;22.51;32.72
56632;BME280;42503;39.928;-75.152;2023-02-18T17:19:01;102753.56;;;22.47;32.65
56632;BME280;42503;39.928;-75.152;2023-02-18T17:29:03;102745.31;;;22.52;32.21
56632;BME280;42503;39.928;-75.152;2023-02-18T17:39:13;102743.13;;;22.54;32.38
56632;BME280;42503;39.928;-75.152;2023-02-18T17:49:18;102696.94;;;22.47;32.42
56632;BME280;42503;39.928;-75.152;2023-02-18T17:59:20;102727.72;;;22.52;32.39
56632;BME280;42503;39.928;-75.152;2023-02-18T18:09:21;102698.22;;;22.56;32.15
56632;BME280;42503;39.928;-75.152;2023-02-18T18:19:22;102705.75;;;22.55;32.06
56632;BME280;42503;39.928;-75.152;2023-02-18T18:29:26;102707.69;;;22.55;32.22
56632;BME280;42503;39.928;-75.152;2023-02-18T18:39:30;102688.19;;;22.55;32.24
56632;BME280;42503;39.928;-75.152;2023-02-18T18:49:32;102685.59;;;22.53;31.93
56632;BME280;42503;39.928;-75.152;2023-02-18T18:59:33;102669.72;;;22.54;32.18
56632;BME280;42503;39.928;-75.152;2023-02-18T19:09:34;102650.78;;;22.56;32.06
56632;BME280;42503;39.928;-75.152;2023-02-18T19:19:36;102597.63;;;22.46;31.96
56632;BME280;42503;39.928;-75.152;2023-02-18T19:29:37;102604.47;;;22.55;32.08
56632;BME280;42503;39.928;-75.152;2023-02-18T19:39:38;102600.72;;;22.49;32.01
56632;BME280;42503;39.928;-75.152;2023-02-18T19:49:40;102593.81;;;22.52;31.70
56632;BME280;42503;39.928;-75.152;2023-02-18T19:59:41;102554.41;;;22.31;31.83
56632;BME280;42503;39.928;-75.152;2023-02-18T20:09:46;102565.34;;;22.50;31.90
56632;BME280;42503;39.928;-75.152;2023-02-18T20:19:47;102551.38;;;22.50;31.79
56632;BME280;42503;39.928;-75.152;2023-02-18T20:29:48;102565.06;;;22.51;31.14
56632;BME280;42503;39.928;-75.152;2023-02-18T20:39:51;102567.91;;;22.40;31.83
56632;BME280;42503;39.928;-75.152;2023-02-18T20:49:53;102597.69;;;22.51;32.03
56632;BME280;42503;39.928;-75.152;2023-02-18T20:59:57;102590.75;;;22.53;32.45
56632;BME280;42503;39.928;-75.152;2023-02-18T21:09:58;102577.75;;;22.59;32.80
56632;BME280;42503;39.928;-75.152;2023-02-18T21:19:59;102581.72;;;22.63;32.57
56632;BME280;42503;39.928;-75.152;2023-02-18T21:30:01;102552.91;;;22.41;32.82
56632;BME280;42503;39.928;-75.152;2023-02-18T21:40:05;102594.81;;;22.63;32.55
56632;BME280;42503;39.928;-75.152;2023-02-18T21:50:07;102608.53;;;22.64;32.56
56632;BME280;42503;39.928;-75.152;2023-02-18T22:00:10;102590.69;;;22.65;32.69
56632;BME280;42503;39.928;-75.152;2023-02-18T22:10:17;102604.16;;;22.68;32.84
56632;BME280;42503;39.928;-75.152;2023-02-18T22:20:21;102629.84;;;22.70;32.75
56632;BME280;42503;39.928;-75.152;2023-02-18T22:30:22;102645.47;;;22.71;32.83
56632;BME280;42503;39.928;-75.152;2023-02-18T22:40:24;102683.44;;;22.72;32.71
56632;BME280;42503;39.928;-75.152;2023-02-18T22:50:25;102672.28;;;22.72;32.38
56632;BME280;42503;39.928;-75.152;2023-02-18T23:00:33;102600.53;;;22.22;32.61
56632;BME280;42503;39.928;-75.152;2023-02-18T23:10:41;102700.44;;;22.71;32.67
56632;BME280;42503;39.928;-75.152;2023-02-18T23:20:44;102702.88;;;22.67;32.46
56632;BME280;42503;39.928;-75.152;2023-02-18T23:31:04;102728.53;;;22.64;32.45
56632;BME280;42503;39.928;-75.152;2023-02-18T23:41:11;102730.22;;;22.65;32.35
56632;BME280;42503;39.928;-75.152;2023-02-18T23:51:18;102754.97;;;22.62;32.26
